sensor_id;sensor_type;location;lat;lon;timestamp;P1;durP1;ratioP1;P2;durP2;ratioP2
23129;SDS011;11734;51.046;13.778;2022-07-22T00:01:52;13.97;;;12.77;;
23129;SDS011;11734;51.046;13.778;2022-07-22T00:04:19;14.47;;;13.27;;
23129;SDS011;11734;51.046;13.778;2022-07-22T00:06:47;14.07;;;12.83;;
23129;SDS011;11734;51.046;13.778;2022-07-22T00:09:14;14.87;;;13.47;;
23129;SDS011;11734;51.046;13.778;2022-07-22T00:11:41;13.97;;;12.67;;
23129;SDS011;11734;51.046;13.778;2022-07-22T00:14:09;14.97;;;13.57;;
23129;SDS011;11734;51.046;13.778;2022-07-22T00:16:38;14.57;;;13.37;;
23129;SDS011;11734;51.046;13.778;2022-07-22T00:19:05;15.67;;;14.30;;
23129;SDS011;11734;51.046;13.778;2022-07-22T00:21:33;15.17;;;13.77;;
23129;SDS011;11734;51.046;13.778;2022-07-22T00:24:00;14.27;;;13.13;;
23129;SDS011;11734;51.046;13.778;2022-07-22T00:26:28;15.10;;;13.77;;
23129;SDS011;11734;51.046;13.778;2022-07-22T00:28:55;15.43;;;13.93;;
23129;SDS011;11734;51.046;13.778;2022-07-22T00:31:23;15.23;;;13.83;;
23129;SDS011;11734;51.046;13.778;2022-07-22T00:33:51;15.50;;;14.20;;
23129;SDS011;11734;51.046;13.778;2022-07-22T00:36:18;14.80;;;13.60;;
23129;SDS011;11734;51.046;13.778;2022-07-22T00:39:04;15.97;;;14.47;;
23129;SDS011;11734;51.046;13.778;2022-07-22T00:41:31;15.77;;;14.27;;
23129;SDS011;11734;51.046;13.778;2022-07-22T00:44:06;16.27;;;14.87;;
23129;SDS011;11734;51.046;13.778;2022-07-22T00:46:36;16.47;;;14.97;;
23129;SDS011;11734;51.046;13.778;2022-07-22T00:49:04;16.00;;;14.50;;
23129;SDS011;11734;51.046;13.778;2022-07-22T00:51:32;16.23;;;14.63;;
23129;SDS011;11734;51.046;13.778;2022-07-22T00:54:00;16.03;;;14.53;;
23129;SDS011;11734;51.046;13.778;2022-07-22T00:56:28;16.37;;;14.87;;
23129;SDS011;11734;51.046;13.778;2022-07-22T00:58:56;16.77;;;15.37;;
23129;SDS011;11734;51.046;13.778;2022-07-22T01:01:25;15.93;;;14.53;;
23129;SDS011;11734;51.046;13.778;2022-07-22T01:03:52;16.20;;;14.60;;
23129;SDS011;11734;51.046;13.778;2022-07-22T01:06:27;15.73;;;14.30;;
23129;SDS011;11734;51.046;13.778;2022-07-22T01:08:55;15.53;;;14.17;;
23129;SDS011;11734;51.046;13.778;2022-07-22T01:11:23;15.73;;;14.23;;
23129;SDS011;11734;51.046;13.778;2022-07-22T01:13:51;16.03;;;14.63;;
23129;SDS011;11734;51.046;13.778;2022-07-22T01:16:19;16.70;;;15.20;;
23129;SDS011;11734;51.046;13.778;2022-07-22T01:18:47;16.90;;;15.47;;
23129;SDS011;11734;51.046;13.778;2022-07-22T01:21:15;16.33;;;14.67;;
23129;SDS011;11734;51.046;13.778;2022-07-22T01:23:43;17.53;;;15.93;;
23129;SDS011;11734;51.046;13.778;2022-07-22T01:26:10;16.83;;;15.33;;
23129;SDS011;11734;51.046;13.778;2022-07-22T01:28:38;16.57;;;15.07;;
23129;SDS011;11734;51.046;13.778;2022-07-22T01:31:06;15.97;;;14.57;;
23129;SDS011;11734;51.046;13.778;2022-07-22T01:33:34;16.83;;;15.33;;
23129;SDS011;11734;51.046;13.778;2022-07-22T01:36:01;15.23;;;14.00;;
23129;SDS011;11734;51.046;13.778;2022-07-22T01:38:29;16.47;;;14.87;;
23129;SDS011;11734;51.046;13.778;2022-07-22T01:40:57;17.90;;;16.33;;
23129;SDS011;11734;51.046;13.778;2022-07-22T01:43:26;18.20;;;16.60;;
23129;SDS011;11734;51.046;13.778;2022-07-22T01:45:54;17.40;;;15.80;;
23129;SDS011;11734;51.046;13.778;2022-07-22T01:48:21;15.97;;;14.47;;
23129;SDS011;11734;51.046;13.778;2022-07-22T01:50:49;17.00;;;15.47;;
23129;SDS011;11734;51.046;13.778;2022-07-22T01:53:17;17.63;;;16.03;;
23129;SDS011;11734;51.046;13.778;2022-07-22T01:55:45;16.97;;;15.37;;
23129;SDS011;11734;51.046;13.778;2022-07-22T01:58:15;17.27;;;15.70;;
23129;SDS011;11734;51.046;13.778;2022-07-22T02:00:43;17.07;;;15.37;;
23129;SDS011;11734;51.046;13.778;2022-07-22T02:03:10;17.43;;;15.93;;
23129;SDS011;11734;51.046;13.778;2022-07-22T02:05:38;17.23;;;15.63;;
23129;SDS011;11734;51.046;13.778;2022-07-22T02:08:16;17.87;;;16.20;;
23129;SDS011;11734;51.046;13.778;2022-07-22T02:11:02;17.43;;;15.73;;
23129;SDS011;11734;51.046;13.778;2022-07-22T02:13:30;17.63;;;16.03;;
23129;SDS011;11734;51.046;13.778;2022-07-22T02:15:58;17.80;;;16.10;;
23129;SDS011;11734;51.046;13.778;2022-07-22T02:18:25;17.70;;;16.20;;
23129;SDS011;11734;51.046;13.778;2022-07-22T02:20:53;17.50;;;15.90;;
23129;SDS011;11734;51.046;13.778;2022-07-22T02:23:20;17.43;;;15.83;;
23129;SDS011;11734;51.046;13.778;2022-07-22T02:25:48;17.03;;;15.43;;
23129;SDS011;11734;51.046;13.778;2022-07-22T02:28:16;17.87;;;16.13;;
23129;SDS011;11734;51.046;13.778;2022-07-22T02:30:43;17.63;;;16.07;;
23129;SDS011;11734;51.046;13.778;2022-07-22T02:33:11;16.80;;;15.30;;
23129;SDS011;11734;51.046;13.778;2022-07-22T02:35:40;17.87;;;16.27;;
23129;SDS011;11734;51.046;13.778;2022-07-22T02:38:07;18.10;;;16.43;;
23129;SDS011;11734;51.046;13.778;2022-07-22T02:40:36;17.30;;;15.70;;
23129;SDS011;11734;51.046;13.778;2022-07-22T02:43:03;17.20;;;15.40;;
23129;SDS011;11734;51.046;13.778;2022-07-22T02:45:33;18.43;;;16.83;;
23129;SDS011;11734;51.046;13.778;2022-07-22T02:48:00;18.20;;;16.63;;
23129;SDS011;11734;51.046;13.778;2022-07-22T02:50:30;18.30;;;16.60;;
23129;SDS011;11734;51.046;13.778;2022-07-22T02:52:59;18.13;;;16.53;;
23129;SDS011;11734;51.046;13.778;2022-07-22T02:55:32;18.00;;;16.40;;
23129;SDS011;11734;51.046;13.778;2022-07-22T02:58:08;18.27;;;16.73;;
23129;SDS011;11734;51.046;13.778;2022-07-22T03:00:38;18.63;;;16.93;;
23129;SDS011;11734;51.046;13.778;2022-07-22T03:03:06;17.37;;;15.87;;
23129;SDS011;11734;51.046;13.778;2022-07-22T03:05:34;19.07;;;17.47;;
23129;SDS011;11734;51.046;13.778;2022-07-22T03:08:15;19.07;;;17.37;;
23129;SDS011;11734;51.046;13.778;2022-07-22T03:10:43;18.47;;;16.87;;
23129;SDS011;11734;51.046;13.778;2022-07-22T03:13:11;18.47;;;16.77;;
23129;SDS011;11734;51.046;13.778;2022-07-22T03:15:38;18.57;;;16.87;;
23129;SDS011;11734;51.046;13.778;2022-07-22T03:18:05;19.77;;;18.00;;
23129;SDS011;11734;51.046;13.778;2022-07-22T03:20:33;18.03;;;16.43;;
23129;SDS011;11734;51.046;13.778;2022-07-22T03:23:00;17.77;;;16.17;;
23129;SDS011;11734;51.046;13.778;2022-07-22T03:25:28;17.50;;;16.00;;
23129;SDS011;11734;51.046;13.778;2022-07-22T03:27:57;19.10;;;17.40;;
23129;SDS011;11734;51.046;13.778;2022-07-22T03:30:25;18.13;;;16.40;;
23129;SDS011;11734;51.046;13.778;2022-07-22T03:32:52;18.67;;;16.97;;
23129;SDS011;11734;51.046;13.778;2022-07-22T03:35:21;17.00;;;15.40;;
23129;SDS011;11734;51.046;13.778;2022-07-22T03:37:48;18.30;;;16.60;;
23129;SDS011;11734;51.046;13.778;2022-07-22T03:40:17;17.17;;;15.67;;
23129;SDS011;11734;51.046;13.778;2022-07-22T03:42:44;17.70;;;15.93;;
23129;SDS011;11734;51.046;13.778;2022-07-22T03:45:13;16.63;;;15.13;;
23129;SDS011;11734;51.046;13.778;2022-07-22T03:47:41;17.73;;;15.90;;
23129;SDS011;11734;51.046;13.778;2022-07-22T03:50:08;17.17;;;15.43;;
23129;SDS011;11734;51.046;13.778;2022-07-22T03:52:36;17.70;;;16.10;;
23129;SDS011;11734;51.046;13.778;2022-07-22T03:55:07;17.17;;;15.57;;
23129;SDS011;11734;51.046;13.778;2022-07-22T03:57:35;17.47;;;15.87;;
23129;SDS011;11734;51.046;13.778;2022-07-22T04:00:08;15.97;;;14.50;;
23129;SDS011;11734;51.046;13.778;2022-07-22T04:02:39;16.83;;;15.23;;
23129;SDS011;11734;51.046;13.778;2022-07-22T04:05:12;17.97;;;16.13;;
23129;SDS011;11734;51.046;13.778;2022-07-22T04:07:39;18.00;;;16.40;;
23129;SDS011;11734;51.046;13.778;2022-07-22T04:10:07;17.63;;;16.03;;
23129;SDS011;11734;51.046;13.778;2022-07-22T04:12:39;18.17;;;16.50;;
23129;SDS011;11734;51.046;13.778;2022-07-22T04:15:15;17.80;;;16.20;;
23129;SDS011;11734;51.046;13.778;2022-07-22T04:17:43;17.03;;;15.40;;
23129;SDS011;11734;51.046;13.778;2022-07-22T04:20:11;16.47;;;14.97;;
23129;SDS011;11734;51.046;13.778;2022-07-22T04:23:02;17.00;;;15.13;;
23129;SDS011;11734;51.046;13.778;2022-07-22T04:25:30;17.60;;;15.97;;
23129;SDS011;11734;51.046;13.778;2022-07-22T04:27:58;17.03;;;14.63;;
23129;SDS011;11734;51.046;13.778;2022-07-22T04:30:25;16.03;;;14.53;;
23129;SDS011;11734;51.046;13.778;2022-07-22T04:32:55;16.20;;;14.60;;
23129;SDS011;11734;51.046;13.778;2022-07-22T04:35:23;15.70;;;14.20;;
23129;SDS011;11734;51.046;13.778;2022-07-22T04:38:04;15.50;;;14.00;;
23129;SDS011;11734;51.046;13.778;2022-07-22T04:40:33;15.80;;;14.27;;
23129;SDS011;11734;51.046;13.778;2022-07-22T04:43:01;15.20;;;13.87;;
23129;SDS011;11734;51.046;13.778;2022-07-22T04:45:28;14.73;;;13.43;;
23129;SDS011;11734;51.046;13.778;2022-07-22T04:47:55;14.83;;;13.47;;
23129;SDS011;11734;51.046;13.778;2022-07-22T04:50:23;15.43;;;13.97;;
23129;SDS011;11734;51.046;13.778;2022-07-22T04:52:58;16.40;;;14.80;;
23129;SDS011;11734;51.046;13.778;2022-07-22T04:55:26;17.00;;;15.40;;
23129;SDS011;11734;51.046;13.778;2022-07-22T04:57:53;16.17;;;14.53;;
23129;SDS011;11734;51.046;13.778;2022-07-22T05:00:21;14.20;;;12.93;;
23129;SDS011;11734;51.046;13.778;2022-07-22T05:02:52;15.40;;;13.80;;
23129;SDS011;11734;51.046;13.778;2022-07-22T05:05:20;15.47;;;14.03;;
23129;SDS011;11734;51.046;13.778;2022-07-22T05:07:48;14.57;;;13.33;;
23129;SDS011;11734;51.046;13.778;2022-07-22T05:10:15;14.43;;;13.13;;
23129;SDS011;11734;51.046;13.778;2022-07-22T05:12:47;14.63;;;13.33;;
23129;SDS011;11734;51.046;13.778;2022-07-22T05:15:15;14.43;;;13.13;;
23129;SDS011;11734;51.046;13.778;2022-07-22T05:17:42;15.83;;;14.47;;
23129;SDS011;11734;51.046;13.778;2022-07-22T05:20:22;13.90;;;12.60;;
23129;SDS011;11734;51.046;13.778;2022-07-22T05:22:50;12.07;;;10.60;;
23129;SDS011;11734;51.046;13.778;2022-07-22T05:25:26;12.53;;;11.43;;
23129;SDS011;11734;51.046;13.778;2022-07-22T05:27:54;10.97;;;10.00;;
23129;SDS011;11734;51.046;13.778;2022-07-22T05:30:43;10.43;;;9.43;;
23129;SDS011;11734;51.046;13.778;2022-07-22T05:33:11;11.03;;;10.03;;
23129;SDS011;11734;51.046;13.778;2022-07-22T05:36:01;10.23;;;9.17;;
23129;SDS011;11734;51.046;13.778;2022-07-22T05:38:35;9.90;;;9.00;;
23129;SDS011;11734;51.046;13.778;2022-07-22T05:41:02;11.37;;;9.10;;
23129;SDS011;11734;51.046;13.778;2022-07-22T05:43:30;9.50;;;8.57;;
23129;SDS011;11734;51.046;13.778;2022-07-22T05:45:58;9.37;;;8.40;;
23129;SDS011;11734;51.046;13.778;2022-07-22T05:48:26;9.83;;;8.40;;
23129;SDS011;11734;51.046;13.778;2022-07-22T05:50:54;9.20;;;8.30;;
23129;SDS011;11734;51.046;13.778;2022-07-22T05:53:21;9.10;;;8.20;;
23129;SDS011;11734;51.046;13.778;2022-07-22T05:55:48;9.13;;;8.23;;
23129;SDS011;11734;51.046;13.778;2022-07-22T05:58:16;9.10;;;8.20;;
23129;SDS011;11734;51.046;13.778;2022-07-22T06:00:44;9.07;;;7.67;;
23129;SDS011;11734;51.046;13.778;2022-07-22T06:03:11;7.73;;;7.00;;
23129;SDS011;11734;51.046;13.778;2022-07-22T06:05:44;8.53;;;7.70;;
23129;SDS011;11734;51.046;13.778;2022-07-22T06:08:12;7.83;;;6.50;;
23129;SDS011;11734;51.046;13.778;2022-07-22T06:10:46;7.30;;;6.27;;
23129;SDS011;11734;51.046;13.778;2022-07-22T06:13:15;7.57;;;6.77;;
23129;SDS011;11734;51.046;13.778;2022-07-22T06:15:43;7.87;;;6.03;;
23129;SDS011;11734;51.046;13.778;2022-07-22T06:18:11;6.60;;;5.83;;
23129;SDS011;11734;51.046;13.778;2022-07-22T06:20:38;6.00;;;5.50;;
23129;SDS011;11734;51.046;13.778;2022-07-22T06:23:06;7.40;;;6.37;;
23129;SDS011;11734;51.046;13.778;2022-07-22T06:25:34;8.87;;;6.20;;
23129;SDS011;11734;51.046;13.778;2022-07-22T06:28:14;7.03;;;6.33;;
23129;SDS011;11734;51.046;13.778;2022-07-22T06:30:41;6.97;;;6.13;;
23129;SDS011;11734;51.046;13.778;2022-07-22T06:33:09;6.57;;;5.67;;
23129;SDS011;11734;51.046;13.778;2022-07-22T06:35:40;6.87;;;6.00;;
23129;SDS011;11734;51.046;13.778;2022-07-22T06:38:09;6.53;;;5.93;;
23129;SDS011;11734;51.046;13.778;2022-07-22T06:41:07;6.93;;;6.27;;
23129;SDS011;11734;51.046;13.778;2022-07-22T06:43:45;6.20;;;5.60;;
23129;SDS011;11734;51.046;13.778;2022-07-22T06:46:35;6.13;;;5.57;;
23129;SDS011;11734;51.046;13.778;2022-07-22T06:49:04;6.90;;;6.20;;
23129;SDS011;11734;51.046;13.778;2022-07-22T06:51:36;6.70;;;6.10;;
23129;SDS011;11734;51.046;13.778;2022-07-22T06:54:03;6.77;;;5.90;;
23129;SDS011;11734;51.046;13.778;2022-07-22T06:56:31;6.27;;;5.77;;
23129;SDS011;11734;51.046;13.778;2022-07-22T06:58:58;6.87;;;6.23;;
23129;SDS011;11734;51.046;13.778;2022-07-22T07:01:26;6.90;;;6.20;;
23129;SDS011;11734;51.046;13.778;2022-07-22T07:03:58;6.80;;;6.10;;
23129;SDS011;11734;51.046;13.778;2022-07-22T07:06:26;6.23;;;5.63;;
23129;SDS011;11734;51.046;13.778;2022-07-22T07:09:19;6.57;;;5.90;;
23129;SDS011;11734;51.046;13.778;2022-07-22T07:12:00;6.50;;;5.90;;
23129;SDS011;11734;51.046;13.778;2022-07-22T07:14:51;6.40;;;5.80;;
23129;SDS011;11734;51.046;13.778;2022-07-22T07:17:39;6.57;;;5.97;;
23129;SDS011;11734;51.046;13.778;2022-07-22T07:20:09;6.17;;;5.00;;
23129;SDS011;11734;51.046;13.778;2022-07-22T07:22:37;5.57;;;5.07;;
23129;SDS011;11734;51.046;13.778;2022-07-22T07:25:05;6.07;;;5.27;;
23129;SDS011;11734;51.046;13.778;2022-07-22T07:27:49;6.03;;;5.17;;
23129;SDS011;11734;51.046;13.778;2022-07-22T07:30:22;5.70;;;5.20;;
23129;SDS011;11734;51.046;13.778;2022-07-22T07:32:50;5.60;;;5.10;;
23129;SDS011;11734;51.046;13.778;2022-07-22T07:35:18;5.47;;;4.97;;
23129;SDS011;11734;51.046;13.778;2022-07-22T07:37:46;5.13;;;4.70;;
23129;SDS011;11734;51.046;13.778;2022-07-22T07:40:14;6.17;;;5.67;;
23129;SDS011;11734;51.046;13.778;2022-07-22T07:42:41;5.93;;;5.33;;
23129;SDS011;11734;51.046;13.778;2022-07-22T07:45:16;6.10;;;5.50;;
23129;SDS011;11734;51.046;13.778;2022-07-22T07:47:47;6.80;;;6.20;;
23129;SDS011;11734;51.046;13.778;2022-07-22T07:50:14;6.30;;;5.70;;
23129;SDS011;11734;51.046;13.778;2022-07-22T07:52:42;7.17;;;5.93;;
23129;SDS011;11734;51.046;13.778;2022-07-22T07:55:18;5.90;;;5.40;;
23129;SDS011;11734;51.046;13.778;2022-07-22T07:57:46;6.50;;;5.90;;
23129;SDS011;11734;51.046;13.778;2022-07-22T08:00:19;6.40;;;5.80;;
23129;SDS011;11734;51.046;13.778;2022-07-22T08:02:47;6.90;;;6.27;;
23129;SDS011;11734;51.046;13.778;2022-07-22T08:05:16;6.40;;;5.53;;
23129;SDS011;11734;51.046;13.778;2022-07-22T08:07:47;5.93;;;5.50;;
23129;SDS011;11734;51.046;13.778;2022-07-22T08:10:18;6.93;;;6.30;;
23129;SDS011;11734;51.046;13.778;2022-07-22T08:13:32;7.07;;;6.57;;
23129;SDS011;11734;51.046;13.778;2022-07-22T08:16:38;6.57;;;6.03;;
23129;SDS011;11734;51.046;13.778;2022-07-22T08:19:05;6.93;;;6.20;;
23129;SDS011;11734;51.046;13.778;2022-07-22T08:21:33;6.43;;;5.83;;
23129;SDS011;11734;51.046;13.778;2022-07-22T08:24:15;6.67;;;6.07;;
23129;SDS011;11734;51.046;13.778;2022-07-22T08:26:43;6.57;;;5.97;;
23129;SDS011;11734;51.046;13.778;2022-07-22T08:29:10;6.97;;;6.37;;
23129;SDS011;11734;51.046;13.778;2022-07-22T08:31:38;6.40;;;5.80;;
23129;SDS011;11734;51.046;13.778;2022-07-22T08:34:09;6.67;;;6.00;;
23129;SDS011;11734;51.046;13.778;2022-07-22T08:36:37;6.70;;;6.20;;
23129;SDS011;11734;51.046;13.778;2022-07-22T08:39:05;7.03;;;6.37;;
23129;SDS011;11734;51.046;13.778;2022-07-22T08:41:35;6.40;;;5.80;;
23129;SDS011;11734;51.046;13.778;2022-07-22T08:44:03;6.57;;;6.00;;
23129;SDS011;11734;51.046;13.778;2022-07-22T08:46:31;6.97;;;6.30;;
23129;SDS011;11734;51.046;13.778;2022-07-22T08:49:17;6.63;;;5.93;;
23129;SDS011;11734;51.046;13.778;2022-07-22T08:52:13;6.67;;;6.17;;
23129;SDS011;11734;51.046;13.778;2022-07-22T08:54:46;7.77;;;7.17;;
23129;SDS011;11734;51.046;13.778;2022-07-22T08:57:17;7.00;;;6.40;;
23129;SDS011;11734;51.046;13.778;2022-07-22T08:59:51;7.80;;;7.20;;
23129;SDS011;11734;51.046;13.778;2022-07-22T09:02:19;7.40;;;6.73;;
23129;SDS011;11734;51.046;13.778;2022-07-22T09:07:39;7.60;;;6.77;;
23129;SDS011;11734;51.046;13.778;2022-07-22T09:10:32;8.80;;;7.30;;
23129;SDS011;11734;51.046;13.778;2022-07-22T09:13:06;8.20;;;7.37;;
23129;SDS011;11734;51.046;13.778;2022-07-22T09:15:46;7.17;;;6.50;;
23129;SDS011;11734;51.046;13.778;2022-07-22T09:18:52;7.50;;;6.80;;
23129;SDS011;11734;51.046;13.778;2022-07-22T09:21:43;9.20;;;7.37;;
23129;SDS011;11734;51.046;13.778;2022-07-22T09:24:28;7.17;;;6.50;;
23129;SDS011;11734;51.046;13.778;2022-07-22T09:27:28;7.97;;;7.27;;
23129;SDS011;11734;51.046;13.778;2022-07-22T09:30:24;8.00;;;7.17;;
23129;SDS011;11734;51.046;13.778;2022-07-22T09:33:06;7.10;;;6.40;;
23129;SDS011;11734;51.046;13.778;2022-07-22T09:35:44;7.03;;;6.40;;
23129;SDS011;11734;51.046;13.778;2022-07-22T09:38:18;7.30;;;6.70;;
23129;SDS011;11734;51.046;13.778;2022-07-22T09:40:47;7.30;;;6.60;;
23129;SDS011;11734;51.046;13.778;2022-07-22T09:43:17;7.80;;;6.60;;
23129;SDS011;11734;51.046;13.778;2022-07-22T09:48:13;7.33;;;6.70;;
23129;SDS011;11734;51.046;13.778;2022-07-22T09:50:56;8.27;;;6.70;;
23129;SDS011;11734;51.046;13.778;2022-07-22T09:53:42;7.20;;;6.50;;
23129;SDS011;11734;51.046;13.778;2022-07-22T09:56:13;7.30;;;6.60;;
23129;SDS011;11734;51.046;13.778;2022-07-22T09:58:42;7.33;;;6.63;;
23129;SDS011;11734;51.046;13.778;2022-07-22T10:01:27;6.87;;;6.37;;
23129;SDS011;11734;51.046;13.778;2022-07-22T10:03:54;7.70;;;6.90;;
23129;SDS011;11734;51.046;13.778;2022-07-22T10:06:41;7.30;;;6.60;;
23129;SDS011;11734;51.046;13.778;2022-07-22T10:09:15;7.03;;;6.27;;
23129;SDS011;11734;51.046;13.778;2022-07-22T10:11:44;7.50;;;6.40;;
23129;SDS011;11734;51.046;13.778;2022-07-22T10:14:17;7.50;;;6.73;;
23129;SDS011;11734;51.046;13.778;2022-07-22T10:16:51;7.43;;;6.83;;
23129;SDS011;11734;51.046;13.778;2022-07-22T10:19:19;7.60;;;6.90;;
23129;SDS011;11734;51.046;13.778;2022-07-22T10:21:46;7.63;;;6.90;;
23129;SDS011;11734;51.046;13.778;2022-07-22T10:24:14;7.60;;;6.90;;
23129;SDS011;11734;51.046;13.778;2022-07-22T10:26:52;8.27;;;7.47;;
23129;SDS011;11734;51.046;13.778;2022-07-22T10:29:26;8.53;;;7.13;;
23129;SDS011;11734;51.046;13.778;2022-07-22T10:34:41;6.87;;;6.27;;
23129;SDS011;11734;51.046;13.778;2022-07-22T10:45:27;8.00;;;7.20;;
23129;SDS011;11734;51.046;13.778;2022-07-22T10:47:56;7.10;;;6.40;;
23129;SDS011;11734;51.046;13.778;2022-07-22T10:53:07;7.10;;;6.50;;
23129;SDS011;11734;51.046;13.778;2022-07-22T10:55:35;6.70;;;6.10;;
23129;SDS011;11734;51.046;13.778;2022-07-22T11:00:49;6.60;;;6.00;;
23129;SDS011;11734;51.046;13.778;2022-07-22T11:03:35;6.97;;;6.47;;
23129;SDS011;11734;51.046;13.778;2022-07-22T11:08:40;7.13;;;6.47;;
23129;SDS011;11734;51.046;13.778;2022-07-22T11:11:08;7.73;;;6.23;;
23129;SDS011;11734;51.046;13.778;2022-07-22T11:13:39;6.30;;;5.80;;
23129;SDS011;11734;51.046;13.778;2022-07-22T11:16:23;7.23;;;6.63;;
23129;SDS011;11734;51.046;13.778;2022-07-22T11:18:58;7.03;;;6.40;;
23129;SDS011;11734;51.046;13.778;2022-07-22T11:21:28;7.07;;;6.57;;
23129;SDS011;11734;51.046;13.778;2022-07-22T11:23:56;7.37;;;6.67;;
23129;SDS011;11734;51.046;13.778;2022-07-22T11:26:26;7.17;;;6.57;;
23129;SDS011;11734;51.046;13.778;2022-07-22T11:28:59;7.10;;;6.47;;
23129;SDS011;11734;51.046;13.778;2022-07-22T11:31:27;6.63;;;6.20;;
23129;SDS011;11734;51.046;13.778;2022-07-22T11:34:14;7.33;;;6.57;;
23129;SDS011;11734;51.046;13.778;2022-07-22T11:36:43;6.87;;;6.27;;
23129;SDS011;11734;51.046;13.778;2022-07-22T11:39:11;6.47;;;5.97;;
23129;SDS011;11734;51.046;13.778;2022-07-22T11:41:39;6.20;;;5.60;;
23129;SDS011;11734;51.046;13.778;2022-07-22T11:44:07;6.30;;;5.80;;
23129;SDS011;11734;51.046;13.778;2022-07-22T11:46:36;6.17;;;5.57;;
23129;SDS011;11734;51.046;13.778;2022-07-22T11:49:03;6.73;;;6.23;;
23129;SDS011;11734;51.046;13.778;2022-07-22T11:51:32;6.90;;;6.20;;
23129;SDS011;11734;51.046;13.778;2022-07-22T11:53:59;6.35;;;5.85;;
23129;SDS011;11734;51.046;13.778;2022-07-22T11:56:27;6.13;;;5.72;;
23129;SDS011;11734;51.046;13.778;2022-07-22T11:58:54;6.80;;;6.25;;
23129;SDS011;11734;51.046;13.778;2022-07-22T12:01:24;6.70;;;6.10;;
23129;SDS011;11734;51.046;13.778;2022-07-22T12:03:53;6.30;;;5.80;;
23129;SDS011;11734;51.046;13.778;2022-07-22T12:06:21;5.70;;;5.20;;
23129;SDS011;11734;51.046;13.778;2022-07-22T12:08:53;6.10;;;5.60;;
23129;SDS011;11734;51.046;13.778;2022-07-22T12:11:22;6.20;;;5.70;;
23129;SDS011;11734;51.046;13.778;2022-07-22T12:13:53;6.53;;;6.03;;
23129;SDS011;11734;51.046;13.778;2022-07-22T12:18:59;6.40;;;5.80;;
23129;SDS011;11734;51.046;13.778;2022-07-22T12:21:31;6.57;;;6.07;;
23129;SDS011;11734;51.046;13.778;2022-07-22T12:24:06;6.63;;;6.07;;
23129;SDS011;11734;51.046;13.778;2022-07-22T12:26:43;6.30;;;5.80;;
23129;SDS011;11734;51.046;13.778;2022-07-22T12:31:48;5.57;;;5.07;;
23129;SDS011;11734;51.046;13.778;2022-07-22T12:34:15;5.43;;;5.03;;
23129;SDS011;11734;51.046;13.778;2022-07-22T12:36:43;5.53;;;5.03;;
23129;SDS011;11734;51.046;13.778;2022-07-22T12:39:12;5.50;;;5.10;;
23129;SDS011;11734;51.046;13.778;2022-07-22T12:41:49;6.07;;;5.37;;
23129;SDS011;11734;51.046;13.778;2022-07-22T12:44:21;5.60;;;5.10;;
23129;SDS011;11734;51.046;13.778;2022-07-22T12:46:51;5.27;;;4.87;;
23129;SDS011;11734;51.046;13.778;2022-07-22T12:49:20;5.30;;;4.90;;
23129;SDS011;11734;51.046;13.778;2022-07-22T12:54:33;5.53;;;5.00;;
23129;SDS011;11734;51.046;13.778;2022-07-22T12:57:01;5.23;;;4.83;;
23129;SDS011;11734;51.046;13.778;2022-07-22T12:59:28;5.43;;;5.00;;
23129;SDS011;11734;51.046;13.778;2022-07-22T13:01:56;5.13;;;4.73;;
23129;SDS011;11734;51.046;13.778;2022-07-22T13:04:26;5.17;;;4.77;;
23129;SDS011;11734;51.046;13.778;2022-07-22T13:06:53;5.30;;;4.90;;
23129;SDS011;11734;51.046;13.778;2022-07-22T13:09:21;5.10;;;4.70;;
23129;SDS011;11734;51.046;13.778;2022-07-22T13:11:50;5.03;;;4.63;;
23129;SDS011;11734;51.046;13.778;2022-07-22T13:14:17;5.23;;;4.83;;
23129;SDS011;11734;51.046;13.778;2022-07-22T13:16:45;5.27;;;4.77;;
23129;SDS011;11734;51.046;13.778;2022-07-22T13:19:12;5.00;;;4.43;;
23129;SDS011;11734;51.046;13.778;2022-07-22T13:21:40;5.03;;;4.17;;
23129;SDS011;11734;51.046;13.778;2022-07-22T13:24:09;5.17;;;4.77;;
23129;SDS011;11734;51.046;13.778;2022-07-22T13:26:37;4.80;;;4.40;;
23129;SDS011;11734;51.046;13.778;2022-07-22T13:29:05;5.33;;;4.53;;
23129;SDS011;11734;51.046;13.778;2022-07-22T13:31:32;5.13;;;4.67;;
23129;SDS011;11734;51.046;13.778;2022-07-22T13:34:10;5.63;;;4.43;;
23129;SDS011;11734;51.046;13.778;2022-07-22T13:36:38;5.43;;;4.60;;
23129;SDS011;11734;51.046;13.778;2022-07-22T13:39:05;4.30;;;4.00;;
23129;SDS011;11734;51.046;13.778;2022-07-22T13:41:32;4.50;;;4.20;;
23129;SDS011;11734;51.046;13.778;2022-07-22T13:44:00;5.90;;;4.77;;
23129;SDS011;11734;51.046;13.778;2022-07-22T13:46:35;4.97;;;4.57;;
23129;SDS011;11734;51.046;13.778;2022-07-22T13:49:02;4.57;;;4.23;;
23129;SDS011;11734;51.046;13.778;2022-07-22T13:51:30;4.43;;;4.03;;
23129;SDS011;11734;51.046;13.778;2022-07-22T13:53:58;4.43;;;4.07;;
23129;SDS011;11734;51.046;13.778;2022-07-22T13:56:26;4.37;;;3.97;;
23129;SDS011;11734;51.046;13.778;2022-07-22T13:58:53;4.50;;;4.10;;
23129;SDS011;11734;51.046;13.778;2022-07-22T14:01:21;4.20;;;3.90;;
23129;SDS011;11734;51.046;13.778;2022-07-22T14:03:48;3.93;;;3.63;;
23129;SDS011;11734;51.046;13.778;2022-07-22T14:06:15;4.40;;;4.10;;
23129;SDS011;11734;51.046;13.778;2022-07-22T14:08:43;4.30;;;3.90;;
23129;SDS011;11734;51.046;13.778;2022-07-22T14:11:10;4.60;;;3.87;;
23129;SDS011;11734;51.046;13.778;2022-07-22T14:13:38;7.93;;;5.03;;
23129;SDS011;11734;51.046;13.778;2022-07-22T14:16:05;4.97;;;4.37;;
23129;SDS011;11734;51.046;13.778;2022-07-22T14:19:13;4.37;;;3.97;;
23129;SDS011;11734;51.046;13.778;2022-07-22T14:21:43;4.60;;;4.23;;
23129;SDS011;11734;51.046;13.778;2022-07-22T14:24:10;4.20;;;3.90;;
23129;SDS011;11734;51.046;13.778;2022-07-22T14:26:38;4.43;;;4.10;;
23129;SDS011;11734;51.046;13.778;2022-07-22T14:29:08;4.13;;;3.83;;
23129;SDS011;11734;51.046;13.778;2022-07-22T14:31:35;4.70;;;4.00;;
23129;SDS011;11734;51.046;13.778;2022-07-22T14:34:03;4.57;;;4.27;;
23129;SDS011;11734;51.046;13.778;2022-07-22T14:36:30;4.33;;;3.80;;
23129;SDS011;11734;51.046;13.778;2022-07-22T14:38:57;4.70;;;4.30;;
23129;SDS011;11734;51.046;13.778;2022-07-22T14:41:25;4.03;;;3.63;;
23129;SDS011;11734;51.046;13.778;2022-07-22T14:43:52;4.40;;;4.10;;
23129;SDS011;11734;51.046;13.778;2022-07-22T14:46:20;4.70;;;4.20;;
23129;SDS011;11734;51.046;13.778;2022-07-22T14:48:47;5.33;;;3.93;;
23129;SDS011;11734;51.046;13.778;2022-07-22T14:51:20;4.40;;;4.10;;
23129;SDS011;11734;51.046;13.778;2022-07-22T14:53:48;4.50;;;4.20;;
23129;SDS011;11734;51.046;13.778;2022-07-22T14:56:16;4.70;;;4.27;;
23129;SDS011;11734;51.046;13.778;2022-07-22T14:58:44;4.33;;;3.93;;
23129;SDS011;11734;51.046;13.778;2022-07-22T15:01:11;4.40;;;4.10;;
23129;SDS011;11734;51.046;13.778;2022-07-22T15:03:39;4.63;;;4.10;;
23129;SDS011;11734;51.046;13.778;2022-07-22T15:06:07;5.23;;;4.83;;
23129;SDS011;11734;51.046;13.778;2022-07-22T15:08:34;5.20;;;4.70;;
23129;SDS011;11734;51.046;13.778;2022-07-22T15:11:02;4.43;;;3.93;;
23129;SDS011;11734;51.046;13.778;2022-07-22T15:13:30;4.50;;;4.10;;
23129;SDS011;11734;51.046;13.778;2022-07-22T15:15:58;4.73;;;4.30;;
23129;SDS011;11734;51.046;13.778;2022-07-22T15:18:25;7.60;;;6.97;;